Data at: 2135 UTC 20 Mar 2018

METAR for:KISP (Islip/Macarthur Arpt, NY, US)
Text:KISP 202118Z 04011KT 10SM OVC070 02/M08 A2982 RMK AO2 RAB06E18PLB06E18 P0000 T00221083 $
Temperature: 2.2°C ( 36°F)
Dewpoint: -8.3°C ( 17°F) [RH = 46%]
Pressure (altimeter):29.82 inches Hg (1009.9 mb)
Winds:from the NE (40 degrees) at 13 MPH (11 knots; 5.7 m/s)
Visibility:10 or more sm (16+ km)
Ceiling:7000 feet AGL
Clouds: overcast cloud deck at 7000 feet AGL
QC Flag:SOME DATA ABOVE MAY BE INACCURATE!!!"$" is an indication the sensor requires maintenance.